sensor_id;sensor_type;location;lat;lon;timestamp;P1;durP1;ratioP1;P2;durP2;ratioP2
19643;SDS011;9970;-36.854;174.870;2023-01-08T00:00:33;10.20;;;10.10;;
19643;SDS011;9970;-36.854;174.870;2023-01-08T00:03:06;11.60;;;11.50;;
19643;SDS011;9970;-36.854;174.870;2023-01-08T00:05:41;11.60;;;11.50;;
19643;SDS011;9970;-36.854;174.870;2023-01-08T00:08:14;11.50;;;11.40;;
19643;SDS011;9970;-36.854;174.870;2023-01-08T00:10:52;11.80;;;11.70;;
19643;SDS011;9970;-36.854;174.870;2023-01-08T00:13:21;12.40;;;12.30;;
19643;SDS011;9970;-36.854;174.870;2023-01-08T00:15:54;12.30;;;12.20;;
19643;SDS011;9970;-36.854;174.870;2023-01-08T00:18:29;11.70;;;11.60;;
19643;SDS011;9970;-36.854;174.870;2023-01-08T00:21:02;12.10;;;12.00;;
19643;SDS011;9970;-36.854;174.870;2023-01-08T00:23:35;12.10;;;12.00;;
19643;SDS011;9970;-36.854;174.870;2023-01-08T00:26:09;11.90;;;11.80;;
19643;SDS011;9970;-36.854;174.870;2023-01-08T00:28:43;11.60;;;11.50;;
19643;SDS011;9970;-36.854;174.870;2023-01-08T00:31:16;11.50;;;11.40;;
19643;SDS011;9970;-36.854;174.870;2023-01-08T00:33:49;10.80;;;10.70;;
19643;SDS011;9970;-36.854;174.870;2023-01-08T00:36:22;10.30;;;10.20;;
19643;SDS011;9970;-36.854;174.870;2023-01-08T00:38:55;10.80;;;10.70;;
19643;SDS011;9970;-36.854;174.870;2023-01-08T00:41:29;11.10;;;11.00;;
19643;SDS011;9970;-36.854;174.870;2023-01-08T00:44:02;10.50;;;10.40;;
19643;SDS011;9970;-36.854;174.870;2023-01-08T00:46:37;10.20;;;10.10;;
19643;SDS011;9970;-36.854;174.870;2023-01-08T00:49:11;10.00;;;9.90;;
19643;SDS011;9970;-36.854;174.870;2023-01-08T00:51:43;10.20;;;10.10;;
19643;SDS011;9970;-36.854;174.870;2023-01-08T00:54:19;9.80;;;9.70;;
19643;SDS011;9970;-36.854;174.870;2023-01-08T00:56:53;9.60;;;9.50;;
19643;SDS011;9970;-36.854;174.870;2023-01-08T00:59:26;9.57;;;9.47;;
19643;SDS011;9970;-36.854;174.870;2023-01-08T01:01:59;9.37;;;9.27;;
19643;SDS011;9970;-36.854;174.870;2023-01-08T01:04:32;9.50;;;9.40;;
19643;SDS011;9970;-36.854;174.870;2023-01-08T01:07:05;9.80;;;9.70;;
19643;SDS011;9970;-36.854;174.870;2023-01-08T01:09:38;9.90;;;9.80;;
19643;SDS011;9970;-36.854;174.870;2023-01-08T01:12:11;9.50;;;9.40;;
19643;SDS011;9970;-36.854;174.870;2023-01-08T01:14:44;9.20;;;9.10;;
19643;SDS011;9970;-36.854;174.870;2023-01-08T01:17:16;9.00;;;8.90;;
19643;SDS011;9970;-36.854;174.870;2023-01-08T01:19:49;9.40;;;9.30;;
19643;SDS011;9970;-36.854;174.870;2023-01-08T01:22:22;9.70;;;9.60;;
19643;SDS011;9970;-36.854;174.870;2023-01-08T01:24:56;9.30;;;9.20;;
19643;SDS011;9970;-36.854;174.870;2023-01-08T01:27:29;9.13;;;9.03;;
19643;SDS011;9970;-36.854;174.870;2023-01-08T01:30:02;9.00;;;8.90;;
19643;SDS011;9970;-36.854;174.870;2023-01-08T01:32:36;9.23;;;9.13;;
19643;SDS011;9970;-36.854;174.870;2023-01-08T01:35:09;8.70;;;8.60;;
19643;SDS011;9970;-36.854;174.870;2023-01-08T01:37:42;9.10;;;9.00;;
19643;SDS011;9970;-36.854;174.870;2023-01-08T01:40:15;9.20;;;9.10;;
19643;SDS011;9970;-36.854;174.870;2023-01-08T01:42:48;9.07;;;8.97;;
19643;SDS011;9970;-36.854;174.870;2023-01-08T01:45:21;8.93;;;8.83;;
19643;SDS011;9970;-36.854;174.870;2023-01-08T01:50:45;8.40;;;8.30;;
19643;SDS011;9970;-36.854;174.870;2023-01-08T01:53:28;8.73;;;8.63;;
19643;SDS011;9970;-36.854;174.870;2023-01-08T01:56:03;8.60;;;8.50;;
19643;SDS011;9970;-36.854;174.870;2023-01-08T01:58:36;8.50;;;8.40;;
19643;SDS011;9970;-36.854;174.870;2023-01-08T02:01:09;8.07;;;7.97;;
19643;SDS011;9970;-36.854;174.870;2023-01-08T02:03:42;8.40;;;8.30;;
19643;SDS011;9970;-36.854;174.870;2023-01-08T02:06:18;8.50;;;8.40;;
19643;SDS011;9970;-36.854;174.870;2023-01-08T02:17:30;8.53;;;8.43;;
19643;SDS011;9970;-36.854;174.870;2023-01-08T02:25:56;8.60;;;8.50;;
19643;SDS011;9970;-36.854;174.870;2023-01-08T02:28:27;9.20;;;9.10;;
19643;SDS011;9970;-36.854;174.870;2023-01-08T02:31:06;8.60;;;8.50;;
19643;SDS011;9970;-36.854;174.870;2023-01-08T02:33:41;8.60;;;8.50;;
19643;SDS011;9970;-36.854;174.870;2023-01-08T02:42:11;8.60;;;8.50;;
19643;SDS011;9970;-36.854;174.870;2023-01-08T02:47:26;8.10;;;8.00;;
19643;SDS011;9970;-36.854;174.870;2023-01-08T02:53:29;8.10;;;8.00;;
19643;SDS011;9970;-36.854;174.870;2023-01-08T02:56:00;8.40;;;8.30;;
19643;SDS011;9970;-36.854;174.870;2023-01-08T02:58:34;7.80;;;7.70;;
19643;SDS011;9970;-36.854;174.870;2023-01-08T03:01:08;8.37;;;8.27;;
19643;SDS011;9970;-36.854;174.870;2023-01-08T03:03:43;8.30;;;8.20;;
19643;SDS011;9970;-36.854;174.870;2023-01-08T03:06:17;8.50;;;8.40;;
19643;SDS011;9970;-36.854;174.870;2023-01-08T03:08:51;7.97;;;7.87;;
19643;SDS011;9970;-36.854;174.870;2023-01-08T03:11:26;8.10;;;8.00;;
19643;SDS011;9970;-36.854;174.870;2023-01-08T03:14:01;8.20;;;8.10;;
19643;SDS011;9970;-36.854;174.870;2023-01-08T03:16:42;8.00;;;7.90;;
19643;SDS011;9970;-36.854;174.870;2023-01-08T03:19:21;7.20;;;7.20;;
19643;SDS011;9970;-36.854;174.870;2023-01-08T03:21:54;6.77;;;6.77;;
19643;SDS011;9970;-36.854;174.870;2023-01-08T03:24:28;7.20;;;7.20;;
19643;SDS011;9970;-36.854;174.870;2023-01-08T03:27:02;7.60;;;7.60;;
19643;SDS011;9970;-36.854;174.870;2023-01-08T03:29:37;7.03;;;7.03;;
19643;SDS011;9970;-36.854;174.870;2023-01-08T03:32:13;7.70;;;7.70;;
19643;SDS011;9970;-36.854;174.870;2023-01-08T03:34:46;7.50;;;7.50;;
19643;SDS011;9970;-36.854;174.870;2023-01-08T03:37:26;7.50;;;7.50;;
19643;SDS011;9970;-36.854;174.870;2023-01-08T03:39:59;7.70;;;7.60;;
19643;SDS011;9970;-36.854;174.870;2023-01-08T03:42:36;7.40;;;7.40;;
19643;SDS011;9970;-36.854;174.870;2023-01-08T03:45:09;7.00;;;7.00;;
19643;SDS011;9970;-36.854;174.870;2023-01-08T03:47:42;7.00;;;7.00;;
19643;SDS011;9970;-36.854;174.870;2023-01-08T03:50:21;7.20;;;7.20;;
19643;SDS011;9970;-36.854;174.870;2023-01-08T03:52:55;7.00;;;7.00;;
19643;SDS011;9970;-36.854;174.870;2023-01-08T03:55:28;7.40;;;7.40;;
19643;SDS011;9970;-36.854;174.870;2023-01-08T03:58:01;6.90;;;6.90;;
19643;SDS011;9970;-36.854;174.870;2023-01-08T04:00:34;7.00;;;7.00;;
19643;SDS011;9970;-36.854;174.870;2023-01-08T04:03:07;6.70;;;6.70;;
19643;SDS011;9970;-36.854;174.870;2023-01-08T04:05:39;7.00;;;7.00;;
19643;SDS011;9970;-36.854;174.870;2023-01-08T04:08:12;6.40;;;6.40;;
19643;SDS011;9970;-36.854;174.870;2023-01-08T04:10:45;6.50;;;6.50;;
19643;SDS011;9970;-36.854;174.870;2023-01-08T04:13:18;6.53;;;6.53;;
19643;SDS011;9970;-36.854;174.870;2023-01-08T04:15:51;7.00;;;7.00;;
19643;SDS011;9970;-36.854;174.870;2023-01-08T04:18:24;6.93;;;6.93;;
19643;SDS011;9970;-36.854;174.870;2023-01-08T04:20:57;7.00;;;7.00;;
19643;SDS011;9970;-36.854;174.870;2023-01-08T04:23:29;6.90;;;6.90;;
19643;SDS011;9970;-36.854;174.870;2023-01-08T04:26:06;6.67;;;6.67;;
19643;SDS011;9970;-36.854;174.870;2023-01-08T04:28:38;7.10;;;7.10;;
19643;SDS011;9970;-36.854;174.870;2023-01-08T04:31:11;7.20;;;7.20;;
19643;SDS011;9970;-36.854;174.870;2023-01-08T04:33:45;7.40;;;7.40;;
19643;SDS011;9970;-36.854;174.870;2023-01-08T04:36:18;7.50;;;7.50;;
19643;SDS011;9970;-36.854;174.870;2023-01-08T04:38:51;7.50;;;7.50;;
19643;SDS011;9970;-36.854;174.870;2023-01-08T04:41:23;8.20;;;8.10;;
19643;SDS011;9970;-36.854;174.870;2023-01-08T04:43:56;8.20;;;8.10;;
19643;SDS011;9970;-36.854;174.870;2023-01-08T04:46:29;7.40;;;7.40;;
19643;SDS011;9970;-36.854;174.870;2023-01-08T04:49:03;7.70;;;7.70;;
19643;SDS011;9970;-36.854;174.870;2023-01-08T04:51:35;8.20;;;8.10;;
19643;SDS011;9970;-36.854;174.870;2023-01-08T04:54:09;8.10;;;8.00;;
19643;SDS011;9970;-36.854;174.870;2023-01-08T04:56:42;8.20;;;8.10;;
19643;SDS011;9970;-36.854;174.870;2023-01-08T04:59:15;7.43;;;7.43;;
19643;SDS011;9970;-36.854;174.870;2023-01-08T05:01:47;7.50;;;7.50;;
19643;SDS011;9970;-36.854;174.870;2023-01-08T05:04:20;7.20;;;7.20;;
19643;SDS011;9970;-36.854;174.870;2023-01-08T05:06:53;7.10;;;7.10;;
19643;SDS011;9970;-36.854;174.870;2023-01-08T05:09:26;7.50;;;7.50;;
19643;SDS011;9970;-36.854;174.870;2023-01-08T05:11:59;7.00;;;7.00;;
19643;SDS011;9970;-36.854;174.870;2023-01-08T05:14:36;7.30;;;7.30;;
19643;SDS011;9970;-36.854;174.870;2023-01-08T05:17:09;7.30;;;7.30;;
19643;SDS011;9970;-36.854;174.870;2023-01-08T05:19:42;7.10;;;7.10;;
19643;SDS011;9970;-36.854;174.870;2023-01-08T05:22:16;7.20;;;7.20;;
19643;SDS011;9970;-36.854;174.870;2023-01-08T05:24:49;7.57;;;7.57;;
19643;SDS011;9970;-36.854;174.870;2023-01-08T05:27:21;7.50;;;7.50;;
19643;SDS011;9970;-36.854;174.870;2023-01-08T05:29:54;7.77;;;7.67;;
19643;SDS011;9970;-36.854;174.870;2023-01-08T05:32:28;7.40;;;7.40;;
19643;SDS011;9970;-36.854;174.870;2023-01-08T05:35:01;6.80;;;6.80;;
19643;SDS011;9970;-36.854;174.870;2023-01-08T05:37:34;6.40;;;6.40;;
19643;SDS011;9970;-36.854;174.870;2023-01-08T05:40:07;6.50;;;6.50;;
19643;SDS011;9970;-36.854;174.870;2023-01-08T05:42:40;6.60;;;6.60;;
19643;SDS011;9970;-36.854;174.870;2023-01-08T05:45:13;6.50;;;6.50;;
19643;SDS011;9970;-36.854;174.870;2023-01-08T05:47:46;6.40;;;6.40;;
19643;SDS011;9970;-36.854;174.870;2023-01-08T05:50:19;6.80;;;6.80;;
19643;SDS011;9970;-36.854;174.870;2023-01-08T05:52:52;6.50;;;6.50;;
19643;SDS011;9970;-36.854;174.870;2023-01-08T05:55:24;6.57;;;6.57;;
19643;SDS011;9970;-36.854;174.870;2023-01-08T05:57:59;6.10;;;6.10;;
19643;SDS011;9970;-36.854;174.870;2023-01-08T06:00:32;6.20;;;6.20;;
19643;SDS011;9970;-36.854;174.870;2023-01-08T06:03:05;6.50;;;6.50;;
19643;SDS011;9970;-36.854;174.870;2023-01-08T06:05:38;6.20;;;6.20;;
19643;SDS011;9970;-36.854;174.870;2023-01-08T06:08:12;6.50;;;6.50;;
19643;SDS011;9970;-36.854;174.870;2023-01-08T06:10:45;6.10;;;6.10;;
19643;SDS011;9970;-36.854;174.870;2023-01-08T06:13:17;6.30;;;6.30;;
19643;SDS011;9970;-36.854;174.870;2023-01-08T06:15:50;6.50;;;6.50;;
19643;SDS011;9970;-36.854;174.870;2023-01-08T06:18:26;6.57;;;6.57;;
19643;SDS011;9970;-36.854;174.870;2023-01-08T06:21:00;6.60;;;6.60;;
19643;SDS011;9970;-36.854;174.870;2023-01-08T06:23:33;7.50;;;7.40;;
19643;SDS011;9970;-36.854;174.870;2023-01-08T06:26:06;6.80;;;6.80;;
19643;SDS011;9970;-36.854;174.870;2023-01-08T06:28:39;5.80;;;5.80;;
19643;SDS011;9970;-36.854;174.870;2023-01-08T06:31:12;6.10;;;6.10;;
19643;SDS011;9970;-36.854;174.870;2023-01-08T06:33:44;5.30;;;5.30;;
19643;SDS011;9970;-36.854;174.870;2023-01-08T06:36:30;4.90;;;4.90;;
19643;SDS011;9970;-36.854;174.870;2023-01-08T06:39:06;3.90;;;3.90;;
19643;SDS011;9970;-36.854;174.870;2023-01-08T06:41:41;3.30;;;3.30;;
19643;SDS011;9970;-36.854;174.870;2023-01-08T06:44:15;3.10;;;3.10;;
19643;SDS011;9970;-36.854;174.870;2023-01-08T06:46:48;2.80;;;2.80;;
19643;SDS011;9970;-36.854;174.870;2023-01-08T06:49:24;2.90;;;2.90;;
19643;SDS011;9970;-36.854;174.870;2023-01-08T06:52:07;2.90;;;2.90;;
19643;SDS011;9970;-36.854;174.870;2023-01-08T06:54:38;3.00;;;3.00;;
19643;SDS011;9970;-36.854;174.870;2023-01-08T06:57:18;3.00;;;3.00;;
19643;SDS011;9970;-36.854;174.870;2023-01-08T06:59:59;3.20;;;3.20;;
19643;SDS011;9970;-36.854;174.870;2023-01-08T07:02:33;3.57;;;3.57;;
19643;SDS011;9970;-36.854;174.870;2023-01-08T07:05:11;3.40;;;3.40;;
19643;SDS011;9970;-36.854;174.870;2023-01-08T07:07:51;3.70;;;3.70;;
19643;SDS011;9970;-36.854;174.870;2023-01-08T07:10:28;3.50;;;3.50;;
19643;SDS011;9970;-36.854;174.870;2023-01-08T07:13:02;3.20;;;3.20;;
19643;SDS011;9970;-36.854;174.870;2023-01-08T07:15:47;3.10;;;3.10;;
19643;SDS011;9970;-36.854;174.870;2023-01-08T07:18:27;3.20;;;3.20;;
19643;SDS011;9970;-36.854;174.870;2023-01-08T07:21:05;3.10;;;3.10;;
19643;SDS011;9970;-36.854;174.870;2023-01-08T07:23:44;3.60;;;3.60;;
19643;SDS011;9970;-36.854;174.870;2023-01-08T07:26:13;3.50;;;3.50;;
19643;SDS011;9970;-36.854;174.870;2023-01-08T07:28:50;3.40;;;3.40;;
19643;SDS011;9970;-36.854;174.870;2023-01-08T07:31:30;3.10;;;3.10;;
19643;SDS011;9970;-36.854;174.870;2023-01-08T07:34:03;3.30;;;3.30;;
19643;SDS011;9970;-36.854;174.870;2023-01-08T07:36:39;3.30;;;3.30;;
19643;SDS011;9970;-36.854;174.870;2023-01-08T07:39:19;3.33;;;3.33;;
19643;SDS011;9970;-36.854;174.870;2023-01-08T07:41:53;3.30;;;3.30;;
19643;SDS011;9970;-36.854;174.870;2023-01-08T07:44:30;3.23;;;3.23;;
19643;SDS011;9970;-36.854;174.870;2023-01-08T07:47:05;3.30;;;3.30;;
19643;SDS011;9970;-36.854;174.870;2023-01-08T07:49:42;3.30;;;3.30;;
19643;SDS011;9970;-36.854;174.870;2023-01-08T07:52:22;3.20;;;3.20;;
19643;SDS011;9970;-36.854;174.870;2023-01-08T07:55:04;3.20;;;3.20;;
19643;SDS011;9970;-36.854;174.870;2023-01-08T07:57:44;3.40;;;3.40;;
19643;SDS011;9970;-36.854;174.870;2023-01-08T08:00:26;3.60;;;3.60;;
19643;SDS011;9970;-36.854;174.870;2023-01-08T08:03:02;3.70;;;3.70;;
19643;SDS011;9970;-36.854;174.870;2023-01-08T08:05:40;3.80;;;3.80;;
19643;SDS011;9970;-36.854;174.870;2023-01-08T08:08:13;3.60;;;3.60;;
19643;SDS011;9970;-36.854;174.870;2023-01-08T08:10:46;3.60;;;3.60;;
19643;SDS011;9970;-36.854;174.870;2023-01-08T08:13:19;3.60;;;3.60;;
19643;SDS011;9970;-36.854;174.870;2023-01-08T08:15:51;3.70;;;3.70;;
19643;SDS011;9970;-36.854;174.870;2023-01-08T08:18:24;3.60;;;3.60;;
19643;SDS011;9970;-36.854;174.870;2023-01-08T08:20:57;3.60;;;3.60;;
19643;SDS011;9970;-36.854;174.870;2023-01-08T08:23:30;3.80;;;3.80;;
19643;SDS011;9970;-36.854;174.870;2023-01-08T08:26:04;3.60;;;3.60;;
19643;SDS011;9970;-36.854;174.870;2023-01-08T08:28:39;3.40;;;3.40;;
19643;SDS011;9970;-36.854;174.870;2023-01-08T08:31:12;3.40;;;3.40;;
19643;SDS011;9970;-36.854;174.870;2023-01-08T08:33:49;3.50;;;3.50;;
19643;SDS011;9970;-36.854;174.870;2023-01-08T08:36:26;3.60;;;3.60;;
19643;SDS011;9970;-36.854;174.870;2023-01-08T08:39:02;3.60;;;3.60;;
19643;SDS011;9970;-36.854;174.870;2023-01-08T08:41:35;3.90;;;3.90;;
19643;SDS011;9970;-36.854;174.870;2023-01-08T08:44:08;3.50;;;3.50;;
19643;SDS011;9970;-36.854;174.870;2023-01-08T08:46:41;3.50;;;3.50;;
19643;SDS011;9970;-36.854;174.870;2023-01-08T08:49:14;3.60;;;3.60;;
19643;SDS011;9970;-36.854;174.870;2023-01-08T08:51:51;3.50;;;3.50;;
19643;SDS011;9970;-36.854;174.870;2023-01-08T08:54:24;3.47;;;3.47;;
19643;SDS011;9970;-36.854;174.870;2023-01-08T08:56:57;3.70;;;3.70;;
19643;SDS011;9970;-36.854;174.870;2023-01-08T08:59:30;3.70;;;3.70;;
19643;SDS011;9970;-36.854;174.870;2023-01-08T09:02:03;3.57;;;3.57;;
19643;SDS011;9970;-36.854;174.870;2023-01-08T09:04:36;3.60;;;3.60;;
19643;SDS011;9970;-36.854;174.870;2023-01-08T09:07:09;3.70;;;3.70;;
19643;SDS011;9970;-36.854;174.870;2023-01-08T09:09:42;3.70;;;3.70;;
19643;SDS011;9970;-36.854;174.870;2023-01-08T09:12:15;3.50;;;3.50;;
19643;SDS011;9970;-36.854;174.870;2023-01-08T09:14:49;3.60;;;3.60;;
19643;SDS011;9970;-36.854;174.870;2023-01-08T09:17:23;3.70;;;3.70;;
19643;SDS011;9970;-36.854;174.870;2023-01-08T09:19:56;3.70;;;3.70;;
19643;SDS011;9970;-36.854;174.870;2023-01-08T09:22:29;3.80;;;3.80;;
19643;SDS011;9970;-36.854;174.870;2023-01-08T09:25:02;4.10;;;4.10;;
19643;SDS011;9970;-36.854;174.870;2023-01-08T09:27:35;4.00;;;4.00;;
19643;SDS011;9970;-36.854;174.870;2023-01-08T09:30:09;4.00;;;4.00;;
19643;SDS011;9970;-36.854;174.870;2023-01-08T09:32:42;4.10;;;4.10;;
19643;SDS011;9970;-36.854;174.870;2023-01-08T09:35:15;3.93;;;3.93;;
19643;SDS011;9970;-36.854;174.870;2023-01-08T09:37:51;4.03;;;4.03;;
19643;SDS011;9970;-36.854;174.870;2023-01-08T09:40:30;3.90;;;3.90;;
19643;SDS011;9970;-36.854;174.870;2023-01-08T09:43:05;4.27;;;4.27;;
19643;SDS011;9970;-36.854;174.870;2023-01-08T09:45:40;4.30;;;4.30;;
19643;SDS011;9970;-36.854;174.870;2023-01-08T09:48:14;4.20;;;4.20;;
19643;SDS011;9970;-36.854;174.870;2023-01-08T09:50:48;4.37;;;4.37;;
19643;SDS011;9970;-36.854;174.870;2023-01-08T09:53:21;4.30;;;4.30;;
19643;SDS011;9970;-36.854;174.870;2023-01-08T09:56:01;4.10;;;4.10;;
19643;SDS011;9970;-36.854;174.870;2023-01-08T09:58:37;4.30;;;4.30;;
19643;SDS011;9970;-36.854;174.870;2023-01-08T10:01:21;4.67;;;4.67;;
19643;SDS011;9970;-36.854;174.870;2023-01-08T10:06:58;4.20;;;4.20;;
19643;SDS011;9970;-36.854;174.870;2023-01-08T10:09:27;4.30;;;4.30;;
19643;SDS011;9970;-36.854;174.870;2023-01-08T10:12:01;4.30;;;4.30;;
19643;SDS011;9970;-36.854;174.870;2023-01-08T10:14:36;4.40;;;4.40;;
19643;SDS011;9970;-36.854;174.870;2023-01-08T10:17:14;4.40;;;4.40;;
19643;SDS011;9970;-36.854;174.870;2023-01-08T10:19:46;4.50;;;4.50;;
19643;SDS011;9970;-36.854;174.870;2023-01-08T10:22:20;4.50;;;4.50;;
19643;SDS011;9970;-36.854;174.870;2023-01-08T10:25:01;4.20;;;4.20;;
19643;SDS011;9970;-36.854;174.870;2023-01-08T10:27:36;4.40;;;4.40;;
19643;SDS011;9970;-36.854;174.870;2023-01-08T10:30:12;4.30;;;4.30;;
19643;SDS011;9970;-36.854;174.870;2023-01-08T10:32:46;4.50;;;4.50;;
19643;SDS011;9970;-36.854;174.870;2023-01-08T10:35:40;4.67;;;4.67;;
19643;SDS011;9970;-36.854;174.870;2023-01-08T10:41:08;4.60;;;4.60;;
19643;SDS011;9970;-36.854;174.870;2023-01-08T10:43:41;4.80;;;4.80;;
19643;SDS011;9970;-36.854;174.870;2023-01-08T10:46:20;4.90;;;4.90;;
19643;SDS011;9970;-36.854;174.870;2023-01-08T10:48:49;4.43;;;4.43;;
19643;SDS011;9970;-36.854;174.870;2023-01-08T10:51:24;4.80;;;4.80;;
19643;SDS011;9970;-36.854;174.870;2023-01-08T10:53:58;4.50;;;4.50;;
19643;SDS011;9970;-36.854;174.870;2023-01-08T10:56:40;4.90;;;4.90;;
19643;SDS011;9970;-36.854;174.870;2023-01-08T10:59:20;4.60;;;4.60;;
19643;SDS011;9970;-36.854;174.870;2023-01-08T11:01:54;4.70;;;4.70;;
19643;SDS011;9970;-36.854;174.870;2023-01-08T11:04:28;5.30;;;5.30;;
19643;SDS011;9970;-36.854;174.870;2023-01-08T11:07:03;4.90;;;4.90;;
19643;SDS011;9970;-36.854;174.870;2023-01-08T11:09:40;4.90;;;4.90;;
19643;SDS011;9970;-36.854;174.870;2023-01-08T11:12:25;5.07;;;5.07;;
19643;SDS011;9970;-36.854;174.870;2023-01-08T11:15:19;5.20;;;5.20;;
19643;SDS011;9970;-36.854;174.870;2023-01-08T11:17:39;5.50;;;5.50;;
19643;SDS011;9970;-36.854;174.870;2023-01-08T11:20:22;5.80;;;5.80;;
19643;SDS011;9970;-36.854;174.870;2023-01-08T11:23:05;5.60;;;5.60;;
19643;SDS011;9970;-36.854;174.870;2023-01-08T11:26:19;5.67;;;5.67;;
19643;SDS011;9970;-36.854;174.870;2023-01-08T11:31:38;5.40;;;5.40;;
19643;SDS011;9970;-36.854;174.870;2023-01-08T11:34:17;5.30;;;5.30;;
19643;SDS011;9970;-36.854;174.870;2023-01-08T11:36:55;5.20;;;5.20;;
19643;SDS011;9970;-36.854;174.870;2023-01-08T11:39:25;5.00;;;5.00;;
19643;SDS011;9970;-36.854;174.870;2023-01-08T11:42:19;5.00;;;5.00;;
19643;SDS011;9970;-36.854;174.870;2023-01-08T11:45:13;5.00;;;5.00;;
19643;SDS011;9970;-36.854;174.870;2023-01-08T11:53:35;5.10;;;5.10;;
19643;SDS011;9970;-36.854;174.870;2023-01-08T11:59:17;4.90;;;4.90;;
19643;SDS011;9970;-36.854;174.870;2023-01-08T12:30:10;7.37;;;7.37;;
19643;SDS011;9970;-36.854;174.870;2023-01-08T12:33:00;7.40;;;7.40;;
19643;SDS011;9970;-36.854;174.870;2023-01-08T12:35:42;7.30;;;7.30;;
19643;SDS011;9970;-36.854;174.870;2023-01-08T12:38:24;7.57;;;7.57;;
19643;SDS011;9970;-36.854;174.870;2023-01-08T12:41:27;7.50;;;7.50;;
19643;SDS011;9970;-36.854;174.870;2023-01-08T12:46:38;7.60;;;7.60;;
19643;SDS011;9970;-36.854;174.870;2023-01-08T12:49:20;7.57;;;7.50;;
19643;SDS011;9970;-36.854;174.870;2023-01-08T12:51:55;8.20;;;8.10;;
19643;SDS011;9970;-36.854;174.870;2023-01-08T12:54:29;7.40;;;7.40;;
19643;SDS011;9970;-36.854;174.870;2023-01-08T12:57:39;7.90;;;7.90;;
19643;SDS011;9970;-36.854;174.870;2023-01-08T13:00:21;7.87;;;7.87;;
19643;SDS011;9970;-36.854;174.870;2023-01-08T13:03:13;8.40;;;8.30;;
19643;SDS011;9970;-36.854;174.870;2023-01-08T13:05:47;8.13;;;8.03;;
19643;SDS011;9970;-36.854;174.870;2023-01-08T13:11:04;8.00;;;7.90;;
19643;SDS011;9970;-36.854;174.870;2023-01-08T13:13:41;8.30;;;8.20;;
19643;SDS011;9970;-36.854;174.870;2023-01-08T13:16:22;8.80;;;8.70;;
19643;SDS011;9970;-36.854;174.870;2023-01-08T13:18:56;8.90;;;8.80;;
19643;SDS011;9970;-36.854;174.870;2023-01-08T13:21:43;9.00;;;8.90;;
19643;SDS011;9970;-36.854;174.870;2023-01-08T13:26:52;9.30;;;9.20;;
19643;SDS011;9970;-36.854;174.870;2023-01-08T13:29:34;9.80;;;9.70;;
19643;SDS011;9970;-36.854;174.870;2023-01-08T13:32:22;9.77;;;9.67;;
19643;SDS011;9970;-36.854;174.870;2023-01-08T13:35:00;10.00;;;9.90;;
19643;SDS011;9970;-36.854;174.870;2023-01-08T13:37:50;10.33;;;10.23;;
19643;SDS011;9970;-36.854;174.870;2023-01-08T13:40:34;10.43;;;10.33;;
19643;SDS011;9970;-36.854;174.870;2023-01-08T13:43:18;9.90;;;9.80;;
19643;SDS011;9970;-36.854;174.870;2023-01-08T13:48:37;9.70;;;9.60;;
19643;SDS011;9970;-36.854;174.870;2023-01-08T13:51:23;10.10;;;10.00;;
19643;SDS011;9970;-36.854;174.870;2023-01-08T13:53:55;10.07;;;9.97;;
19643;SDS011;9970;-36.854;174.870;2023-01-08T13:56:29;10.20;;;10.10;;
19643;SDS011;9970;-36.854;174.870;2023-01-08T13:59:03;10.20;;;10.10;;
19643;SDS011;9970;-36.854;174.870;2023-01-08T14:01:36;10.10;;;10.00;;
19643;SDS011;9970;-36.854;174.870;2023-01-08T14:04:09;9.80;;;9.70;;
19643;SDS011;9970;-36.854;174.870;2023-01-08T14:06:44;10.60;;;10.50;;
19643;SDS011;9970;-36.854;174.870;2023-01-08T14:09:24;9.20;;;9.10;;
19643;SDS011;9970;-36.854;174.870;2023-01-08T14:11:52;10.10;;;10.00;;
19643;SDS011;9970;-36.854;174.870;2023-01-08T14:14:26;10.70;;;10.60;;
19643;SDS011;9970;-36.854;174.870;2023-01-08T14:16:59;10.70;;;10.60;;
19643;SDS011;9970;-36.854;174.870;2023-01-08T14:19:33;10.60;;;10.50;;
19643;SDS011;9970;-36.854;174.870;2023-01-08T14:22:06;10.10;;;10.00;;
19643;SDS011;9970;-36.854;174.870;2023-01-08T14:24:41;10.60;;;10.50;;
19643;SDS011;9970;-36.854;174.870;2023-01-08T14:27:25;11.00;;;10.90;;
19643;SDS011;9970;-36.854;174.870;2023-01-08T14:29:54;10.50;;;10.40;;
19643;SDS011;9970;-36.854;174.870;2023-01-08T14:32:28;10.60;;;10.50;;
19643;SDS011;9970;-36.854;174.870;2023-01-08T14:35:02;10.20;;;10.10;;
19643;SDS011;9970;-36.854;174.870;2023-01-08T14:37:40;10.60;;;10.50;;
19643;SDS011;9970;-36.854;174.870;2023-01-08T14:40:16;10.70;;;10.60;;
19643;SDS011;9970;-36.854;174.870;2023-01-08T14:42:50;9.80;;;9.70;;
19643;SDS011;9970;-36.854;174.870;2023-01-08T14:45:27;9.80;;;9.70;;
19643;SDS011;9970;-36.854;174.870;2023-01-08T14:50:44;9.90;;;9.80;;
19643;SDS011;9970;-36.854;174.870;2023-01-08T14:56:12;9.70;;;9.60;;
19643;SDS011;9970;-36.854;174.870;2023-01-08T14:58:47;10.10;;;10.00;;
19643;SDS011;9970;-36.854;174.870;2023-01-08T15:01:25;10.00;;;9.90;;
19643;SDS011;9970;-36.854;174.870;2023-01-08T15:06:46;10.30;;;10.20;;
19643;SDS011;9970;-36.854;174.870;2023-01-08T15:09:21;10.23;;;10.13;;
19643;SDS011;9970;-36.854;174.870;2023-01-08T15:11:56;10.10;;;10.00;;
19643;SDS011;9970;-36.854;174.870;2023-01-08T15:14:31;10.30;;;10.20;;
19643;SDS011;9970;-36.854;174.870;2023-01-08T15:17:13;10.53;;;10.43;;
19643;SDS011;9970;-36.854;174.870;2023-01-08T15:19:56;10.30;;;10.20;;
19643;SDS011;9970;-36.854;174.870;2023-01-08T15:22:30;10.50;;;10.40;;
19643;SDS011;9970;-36.854;174.870;2023-01-08T15:25:05;10.87;;;10.77;;
19643;SDS011;9970;-36.854;174.870;2023-01-08T15:27:40;11.10;;;11.00;;
19643;SDS011;9970;-36.854;174.870;2023-01-08T15:30:25;11.27;;;11.17;;
19643;SDS011;9970;-36.854;174.870;2023-01-08T15:35:50;10.73;;;10.63;;
19643;SDS011;9970;-36.854;174.870;2023-01-08T15:38:23;10.70;;;10.60;;
19643;SDS011;9970;-36.854;174.870;2023-01-08T15:40:57;10.70;;;10.60;;
19643;SDS011;9970;-36.854;174.870;2023-01-08T15:43:30;10.60;;;10.50;;
19643;SDS011;9970;-36.854;174.870;2023-01-08T15:46:03;10.40;;;10.30;;
19643;SDS011;9970;-36.854;174.870;2023-01-08T15:48:38;10.80;;;10.70;;
19643;SDS011;9970;-36.854;174.870;2023-01-08T15:51:11;10.50;;;10.40;;
19643;SDS011;9970;-36.854;174.870;2023-01-08T15:53:44;9.77;;;9.67;;
19643;SDS011;9970;-36.854;174.870;2023-01-08T15:56:17;9.50;;;9.40;;
19643;SDS011;9970;-36.854;174.870;2023-01-08T15:58:50;9.03;;;8.93;;
19643;SDS011;9970;-36.854;174.870;2023-01-08T16:01:23;9.73;;;9.63;;
19643;SDS011;9970;-36.854;174.870;2023-01-08T16:03:57;10.00;;;9.90;;
19643;SDS011;9970;-36.854;174.870;2023-01-08T16:06:30;10.23;;;10.13;;
19643;SDS011;9970;-36.854;174.870;2023-01-08T16:09:04;9.80;;;9.70;;
19643;SDS011;9970;-36.854;174.870;2023-01-08T16:11:37;10.00;;;9.90;;
19643;SDS011;9970;-36.854;174.870;2023-01-08T16:14:11;9.80;;;9.70;;
19643;SDS011;9970;-36.854;174.870;2023-01-08T16:16:44;9.70;;;9.60;;
19643;SDS011;9970;-36.854;174.870;2023-01-08T16:19:17;9.50;;;9.40;;
19643;SDS011;9970;-36.854;174.870;2023-01-08T16:21:51;9.60;;;9.50;;
19643;SDS011;9970;-36.854;174.870;2023-01-08T16:24:24;9.50;;;9.40;;
19643;SDS011;9970;-36.854;174.870;2023-01-08T16:26:57;9.30;;;9.20;;
19643;SDS011;9970;-36.854;174.870;2023-01-08T16:29:31;9.50;;;9.40;;
19643;SDS011;9970;-36.854;174.870;2023-01-08T16:32:04;9.47;;;9.37;;
19643;SDS011;9970;-36.854;174.870;2023-01-08T16:34:37;9.30;;;9.20;;
19643;SDS011;9970;-36.854;174.870;2023-01-08T16:37:13;9.13;;;9.03;;
19643;SDS011;9970;-36.854;174.870;2023-01-08T16:39:46;9.00;;;8.90;;